Time;durP1;ratioP1;P1;durP2;ratioP2;P2;SDS_P1;SDS_P2;PMS_P1;PMS_P2;Temp;Humidity;BMP_temperature;BMP_pressure;BME280_temperature;BME280_humidity;BME280_pressure;Samples;Min_cycle;Max_cycle;Signal;HPM_P1;HPM_P2
2023/05/31 00:02:08;;;;;;;5.32;2.80;;;;;;;13.88;68.60;99082.28;5088966;28;20383;-52
2023/05/31 00:04:34;;;;;;;5.00;2.28;;;;;;;13.85;68.75;99090.31;5067355;28;20052;-52
2023/05/31 00:07:00;;;;;;;4.32;2.90;;;;;;;13.81;68.99;99086.19;5083498;28;20051;-50
2023/05/31 00:09:26;;;;;;;4.35;2.72;;;;;;;13.67;68.95;99073.06;5091105;28;20032;-49
2023/05/31 00:11:52;;;;;;;3.45;2.50;;;;;;;13.77;69.13;99101.19;5089512;28;20526;-51
2023/05/31 00:14:18;;;;;;;4.90;2.45;;;;;;;13.74;69.45;99110.97;5090832;28;20057;-53
2023/05/31 00:16:44;;;;;;;4.57;2.60;;;;;;;13.71;69.29;99104.13;5071078;28;20126;-50
2023/05/31 00:19:09;;;;;;;5.90;2.40;;;;;;;13.70;69.50;99097.25;5071707;28;20135;-56
2023/05/31 00:21:35;;;;;;;7.07;2.72;;;;;;;13.68;69.52;99095.63;5086768;28;20044;-52
2023/05/31 00:24:01;;;;;;;3.42;2.40;;;;;;;13.64;69.55;99096.75;5090227;28;20104;-52
2023/05/31 00:26:27;;;;;;;6.05;2.40;;;;;;;13.62;69.32;99107.28;5090808;28;20051;-54
2023/05/31 00:28:53;;;;;;;3.75;2.47;;;;;;;13.62;69.73;99109.03;5072586;28;20525;-54
2023/05/31 00:31:18;;;;;;;3.88;2.53;;;;;;;13.48;69.65;99095.00;5091021;28;20127;-53
2023/05/31 00:33:46;;;;;;;4.45;2.33;;;;;;;13.45;69.48;99089.91;5053764;28;20068;-52
2023/05/31 00:36:11;;;;;;;4.28;2.00;;;;;;;13.54;69.45;99120.78;5070264;28;20164;-52
2023/05/31 00:38:37;;;;;;;4.75;2.20;;;;;;;13.45;69.74;99113.41;5072239;28;20095;-52
2023/05/31 00:41:03;;;;;;;5.47;2.45;;;;;;;13.46;69.98;99128.16;5071648;28;20036;-51
2023/05/31 00:43:30;;;;;;;4.25;3.03;;;;;;;13.46;69.82;99117.72;5087562;28;20111;-47
2023/05/31 00:45:56;;;;;;;5.22;2.65;;;;;;;13.46;70.15;99116.88;5090440;28;20043;-55
2023/05/31 00:48:22;;;;;;;5.82;2.58;;;;;;;13.41;70.10;99108.47;5055691;28;20086;-49
2023/05/31 00:50:49;;;;;;;5.15;2.75;;;;;;;13.24;70.06;99082.47;5071215;28;20114;-52
2023/05/31 00:53:15;;;;;;;4.43;2.42;;;;;;;13.38;70.08;99106.88;5070460;28;20068;-54
2023/05/31 00:55:41;;;;;;;3.15;2.50;;;;;;;13.37;70.39;99112.16;5054282;28;20051;-49
2023/05/31 00:58:07;;;;;;;4.22;2.50;;;;;;;13.35;70.15;99114.00;5055375;28;20570;-48
2023/05/31 01:00:32;;;;;;;4.85;2.50;;;;;;;13.32;70.48;99111.56;5072138;28;20059;-51
2023/05/31 01:03:02;;;;;;;5.40;2.20;;;;;;;13.31;70.32;99113.34;5051256;28;20040;-50
2023/05/31 01:05:28;;;;;;;4.07;2.60;;;;;;;13.27;70.74;99103.16;5080579;28;20424;-51
2023/05/31 01:07:54;;;;;;;5.72;2.40;;;;;;;13.09;70.65;99079.69;5086837;28;20048;-47
2023/05/31 01:10:20;;;;;;;4.75;2.67;;;;;;;13.29;70.49;99104.78;5050035;28;20048;-49
2023/05/31 01:12:52;;;;;;;5.93;2.35;;;;;;;13.30;70.73;99103.81;5070288;28;20469;-51
2023/05/31 01:15:52;;;;;;;6.75;2.40;;;;;;;13.31;70.78;99107.28;5087566;28;20060;-49
2023/05/31 01:18:25;;;;;;;3.83;2.53;;;;;;;13.31;70.53;99105.50;5035331;28;20511;-48
2023/05/31 01:20:53;;;;;;;4.07;2.33;;;;;;;13.20;70.27;99083.53;5068349;28;20078;-46
2023/05/31 01:23:57;;;;;;;5.63;2.10;;;;;;;13.35;70.47;99103.56;5069167;28;20043;-51
2023/05/31 01:26:46;;;;;;;3.92;2.42;;;;;;;13.34;70.28;99107.13;5064005;28;20044;-48
2023/05/31 01:29:17;;;;;;;5.45;2.30;;;;;;;13.22;70.44;99090.34;5084942;28;20066;-50
2023/05/31 01:31:45;;;;;;;3.30;2.10;;;;;;;13.10;70.47;99067.50;5072852;28;20152;-52
2023/05/31 01:34:11;;;;;;;4.67;2.17;;;;;;;13.22;70.67;99079.91;5089139;28;20477;-47
2023/05/31 01:36:37;;;;;;;5.90;2.35;;;;;;;13.32;70.76;99103.75;5038147;28;20282;-51
2023/05/31 01:39:04;;;;;;;4.50;2.17;;;;;;;13.29;70.94;99106.53;5088544;28;20109;-48
2023/05/31 01:41:36;;;;;;;3.92;2.10;;;;;;;13.28;70.92;99105.69;5069159;28;20044;-47
2023/05/31 01:44:02;;;;;;;3.53;2.00;;;;;;;13.28;71.19;99113.53;5088851;28;20043;-52
2023/05/31 01:46:29;;;;;;;3.75;2.38;;;;;;;13.28;71.24;99116.13;5051177;28;20401;-52
2023/05/31 01:48:55;;;;;;;5.28;2.35;;;;;;;13.27;71.38;99104.00;5034234;28;20131;-48
2023/05/31 01:51:22;;;;;;;5.93;2.40;;;;;;;13.20;71.44;99086.13;5038746;28;20071;-51
2023/05/31 01:53:48;;;;;;;5.05;2.65;;;;;;;13.17;71.58;99078.47;5038674;28;20053;-50
2023/05/31 01:56:15;;;;;;;4.43;2.72;;;;;;;13.23;71.48;99088.59;5028179;28;20072;-48
2023/05/31 01:58:44;;;;;;;4.13;2.63;;;;;;;13.18;71.49;99088.00;5014596;28;20041;-46
2023/05/31 02:01:11;;;;;;;4.95;2.78;;;;;;;13.30;71.78;99109.03;5027628;28;20041;-49
2023/05/31 02:03:38;;;;;;;3.13;2.58;;;;;;;13.34;71.80;99112.34;5027666;28;20053;-52
2023/05/31 02:06:04;;;;;;;5.43;2.60;;;;;;;13.35;71.96;99114.00;5027755;28;20102;-51
2023/05/31 02:08:30;;;;;;;4.63;3.05;;;;;;;13.40;71.61;99119.81;5030210;28;20068;-52
2023/05/31 02:10:56;;;;;;;9.40;2.85;;;;;;;13.42;71.75;99117.97;5048058;28;20044;-47
2023/05/31 02:13:27;;;;;;;4.07;2.88;;;;;;;13.48;71.76;99118.50;5046670;28;20045;-50
2023/05/31 02:15:54;;;;;;;7.57;3.45;;;;;;;13.53;71.53;99115.63;5021718;28;20420;-51
2023/05/31 02:18:21;;;;;;;4.38;3.28;;;;;;;13.61;71.57;99108.19;5010758;28;20045;-47
2023/05/31 02:21:07;;;;;;;5.20;3.10;;;;;;;13.69;71.36;99113.00;5032604;28;20099;-53
2023/05/31 02:23:33;;;;;;;4.70;2.78;;;;;;;13.70;71.08;99105.09;5025445;28;20041;-54
2023/05/31 02:25:59;;;;;;;6.18;2.70;;;;;;;13.79;71.09;99111.56;5047165;28;20040;-52
2023/05/31 02:28:25;;;;;;;4.18;2.70;;;;;;;13.71;70.76;99095.47;5063783;28;20055;-51
2023/05/31 02:30:55;;;;;;;3.90;3.13;;;;;;;13.91;70.68;99116.09;5051385;28;20413;-52
2023/05/31 02:33:23;;;;;;;4.03;2.45;;;;;;;13.97;70.54;99113.94;5048878;28;20144;-50
2023/05/31 02:35:49;;;;;;;5.25;2.60;;;;;;;14.04;70.30;99114.44;5048666;28;20041;-49
2023/05/31 02:38:16;;;;;;;5.55;2.97;;;;;;;14.11;70.05;99122.78;5046915;28;20069;-50
2023/05/31 02:40:43;;;;;;;8.80;2.58;;;;;;;14.21;70.03;99118.72;5046147;28;20040;-46
2023/05/31 02:43:10;;;;;;;3.90;2.47;;;;;;;14.24;69.47;99100.22;5047932;28;20041;-51
2023/05/31 02:45:37;;;;;;;4.87;2.60;;;;;;;14.36;69.11;99110.84;5045950;28;20420;-52
2023/05/31 02:48:05;;;;;;;4.10;2.42;;;;;;;14.41;69.07;99118.41;5048097;28;20091;-49
2023/05/31 02:50:32;;;;;;;5.60;2.92;;;;;;;14.47;68.83;99117.22;5028254;28;20063;-50
2023/05/31 02:53:04;;;;;;;4.13;2.35;;;;;;;14.49;68.70;99116.22;5050351;28;20044;-52
2023/05/31 02:55:37;;;;;;;8.23;2.63;;;;;;;14.55;68.50;99112.38;5086823;28;20537;-52
2023/05/31 02:58:26;;;;;;;5.25;2.30;;;;;;;14.66;68.16;99112.56;5040011;28;20052;-53
2023/05/31 03:01:13;;;;;;;7.90;2.78;;;;;;;14.75;67.70;99107.63;5016029;28;20054;-51
2023/05/31 03:03:49;;;;;;;7.68;2.80;;;;;;;14.89;67.35;99111.19;5051565;28;20106;-46
2023/05/31 03:06:21;;;;;;;4.40;2.70;;;;;;;14.99;66.94;99110.53;5048641;28;20044;-52
2023/05/31 03:08:48;;;;;;;3.65;2.38;;;;;;;15.08;66.66;99104.72;5072601;28;20040;-49
2023/05/31 03:11:14;;;;;;;5.78;2.30;;;;;;;15.13;66.29;99107.88;5074155;28;20130;-46
2023/05/31 03:13:41;;;;;;;4.30;2.05;;;;;;;15.12;66.50;99114.09;5073790;28;20124;-48
2023/05/31 03:16:07;;;;;;;5.53;3.78;;;;;;;15.00;66.26;99093.88;5073260;28;20044;-49
2023/05/31 03:18:33;;;;;;;3.20;2.17;;;;;;;15.14;66.04;99120.03;5073672;28;20040;-47
2023/05/31 03:21:00;;;;;;;4.13;2.28;;;;;;;15.15;65.92;99126.97;5071985;28;20073;-47
2023/05/31 03:23:26;;;;;;;3.80;2.25;;;;;;;15.18;65.78;99129.38;5072482;28;20044;-48
2023/05/31 03:25:52;;;;;;;5.00;2.15;;;;;;;15.19;65.61;99119.75;5057114;28;20043;-50
2023/05/31 03:28:18;;;;;;;6.65;2.53;;;;;;;15.22;65.72;99122.22;5072546;28;20040;-52
2023/05/31 03:30:45;;;;;;;4.55;2.60;;;;;;;15.26;65.80;99131.53;5073983;28;20526;-52
2023/05/31 03:33:11;;;;;;;3.75;2.30;;;;;;;15.31;65.76;99128.63;5073278;28;20044;-52
2023/05/31 03:35:37;;;;;;;6.50;2.65;;;;;;;15.33;65.45;99132.84;5072752;28;20044;-49
2023/05/31 03:38:04;;;;;;;3.88;2.35;;;;;;;15.16;65.35;99097.25;5072840;28;20039;-48
2023/05/31 03:40:32;;;;;;;4.88;2.65;;;;;;;15.50;65.24;99130.00;5056829;28;20096;-51
2023/05/31 03:42:58;;;;;;;7.57;2.17;;;;;;;15.58;64.98;99126.94;5071737;28;20050;-49
2023/05/31 03:45:25;;;;;;;6.65;2.42;;;;;;;15.62;65.03;99133.66;5070356;28;20032;-49
2023/05/31 03:47:52;;;;;;;7.63;2.75;;;;;;;15.62;64.92;99133.66;5073622;28;20050;-47
2023/05/31 03:50:18;;;;;;;3.10;2.60;;;;;;;15.55;64.93;99145.47;5056619;28;20499;-51
2023/05/31 03:52:45;;;;;;;6.00;2.67;;;;;;;15.41;64.72;99133.19;5056189;28;20177;-48
2023/05/31 03:55:11;;;;;;;6.35;3.05;;;;;;;15.26;65.10;99118.44;5072287;28;20122;-51
2023/05/31 03:57:38;;;;;;;3.17;2.67;;;;;;;15.35;65.47;99138.81;5056512;28;20468;-50
2023/05/31 04:00:05;;;;;;;8.18;2.55;;;;;;;15.20;65.59;99119.66;5072796;28;20044;-49
2023/05/31 04:02:39;;;;;;;4.45;2.65;;;;;;;15.22;66.01;99135.28;5060178;28;20044;-48
2023/05/31 04:05:06;;;;;;;3.17;2.30;;;;;;;15.16;66.37;99139.13;5055145;28;20402;-50
2023/05/31 04:07:32;;;;;;;5.10;2.58;;;;;;;15.10;66.92;99126.41;5038486;28;20633;-49
2023/05/31 04:09:59;;;;;;;3.38;2.42;;;;;;;14.96;67.38;99134.28;5069155;28;20047;-49
2023/05/31 04:12:24;;;;;;;5.03;2.45;;;;;;;14.96;67.79;99136.06;5076859;28;20419;-50
2023/05/31 04:14:51;;;;;;;4.93;2.35;;;;;;;14.92;68.11;99132.75;5070471;28;21994;-54
2023/05/31 04:17:18;;;;;;;4.82;2.67;;;;;;;14.92;68.21;99131.91;5072953;28;20050;-51
2023/05/31 04:19:44;;;;;;;2.75;2.17;;;;;;;14.88;68.68;99133.03;5052196;28;20126;-52
2023/05/31 04:22:10;;;;;;;2.90;2.08;;;;;;;14.79;68.78;99132.69;5056695;28;20090;-42
2023/05/31 04:24:36;;;;;;;8.00;2.60;;;;;;;14.75;68.87;99131.19;5047881;28;20594;-41
2023/05/31 04:27:03;;;;;;;4.15;2.20;;;;;;;14.70;69.28;99130.63;5061247;28;20044;-43
2023/05/31 04:29:31;;;;;;;5.80;2.17;;;;;;;14.61;70.53;99127.69;5066287;28;20047;-43
2023/05/31 04:32:00;;;;;;;10.40;2.53;;;;;;;14.51;71.77;99127.41;5089074;28;20403;-42
2023/05/31 04:34:26;;;;;;;5.28;2.72;;;;;;;14.45;73.47;99127.75;5072111;28;20035;-42
2023/05/31 04:36:53;;;;;;;3.38;2.58;;;;;;;14.35;74.57;99123.97;5076909;28;20959;-43
2023/05/31 04:39:22;;;;;;;4.55;2.80;;;;;;;14.28;76.09;99126.13;5070707;28;20122;-40
2023/05/31 04:41:49;;;;;;;5.85;2.58;;;;;;;14.25;77.42;99128.06;5054739;28;20040;-42
2023/05/31 04:44:18;;;;;;;3.65;2.60;;;;;;;14.23;78.73;99122.09;5059388;28;20048;-40
2023/05/31 04:46:45;;;;;;;4.80;2.53;;;;;;;14.12;79.57;99099.19;5064037;28;20046;-42
2023/05/31 04:49:12;;;;;;;3.28;2.60;;;;;;;14.26;80.01;99120.13;5047343;28;20430;-40
2023/05/31 04:51:38;;;;;;;5.63;3.38;;;;;;;14.26;80.34;99125.34;5081272;28;20043;-42
2023/05/31 04:54:05;;;;;;;3.63;2.90;;;;;;;14.26;80.90;99125.34;5080608;28;20063;-42
2023/05/31 04:56:32;;;;;;;4.22;2.65;;;;;;;14.25;80.86;99122.81;5073878;28;20222;-42
2023/05/31 04:58:58;;;;;;;3.13;2.50;;;;;;;14.19;81.03;99126.63;5055596;28;20173;-41
2023/05/31 05:01:24;;;;;;;3.58;2.30;;;;;;;14.15;81.61;99113.84;5072031;28;20046;-41
2023/05/31 05:03:59;;;;;;;3.65;2.33;;;;;;;14.12;81.50;99132.31;5087812;28;20044;-41
2023/05/31 05:06:27;;;;;;;5.38;2.97;;;;;;;13.95;81.81;99105.38;5102262;28;20546;-42
2023/05/31 05:08:53;;;;;;;4.65;2.75;;;;;;;14.06;81.79;99119.59;5071500;28;20032;-52
2023/05/31 05:11:19;;;;;;;2.63;1.90;;;;;;;14.03;81.94;99125.00;5052157;28;20432;-46
2023/05/31 05:13:46;;;;;;;2.10;1.80;;;;;;;13.78;81.71;99088.97;5049557;28;20047;-48
2023/05/31 05:16:13;;;;;;;2.88;1.90;;;;;;;13.94;81.67;99121.97;5037001;28;20052;-45
2023/05/31 05:18:40;;;;;;;3.88;1.88;;;;;;;13.89;81.85;99117.94;5071721;28;20427;-46
2023/05/31 05:21:09;;;;;;;3.60;1.92;;;;;;;13.74;81.84;99090.91;5037819;28;20188;-47
2023/05/31 05:23:39;;;;;;;4.22;1.80;;;;;;;13.87;82.16;99107.56;5054171;28;20031;-47
2023/05/31 05:26:05;;;;;;;2.75;1.63;;;;;;;13.84;82.24;99118.22;5071292;28;20044;-51
2023/05/31 05:28:31;;;;;;;2.78;1.92;;;;;;;13.81;82.35;99123.63;5041654;28;20651;-45
2023/05/31 05:30:57;;;;;;;4.20;2.78;;;;;;;13.80;82.63;99119.31;5071073;28;20070;-45
2023/05/31 05:33:26;;;;;;;2.63;2.10;;;;;;;13.81;82.71;99130.63;5077137;28;20085;-47
2023/05/31 05:35:52;;;;;;;5.22;3.78;;;;;;;13.81;82.65;99125.38;5067823;28;20059;-47
2023/05/31 05:38:18;;;;;;;4.95;2.45;;;;;;;13.73;83.01;99111.91;5071318;28;20044;-46
2023/05/31 05:40:44;;;;;;;2.90;2.38;;;;;;;13.76;82.88;99117.81;5090647;28;20039;-47
2023/05/31 05:43:10;;;;;;;2.78;2.03;;;;;;;13.82;83.09;99127.88;5094766;28;20054;-50
2023/05/31 05:45:51;;;;;;;3.28;1.83;;;;;;;13.80;82.98;99137.59;5059316;28;20040;-48
2023/05/31 05:48:17;;;;;;;2.40;1.77;;;;;;;13.80;82.67;99140.22;5071347;28;20423;-52
2023/05/31 05:50:45;;;;;;;2.53;2.15;;;;;;;13.76;82.10;99145.72;5069841;28;20051;-47
2023/05/31 05:53:11;;;;;;;4.55;1.70;;;;;;;13.63;82.09;99148.13;5070143;28;20129;-48
2023/05/31 05:55:38;;;;;;;2.58;2.20;;;;;;;13.57;81.89;99143.25;5071015;28;20427;-47
2023/05/31 05:58:04;;;;;;;3.50;1.88;;;;;;;13.62;81.78;99143.00;5081168;28;20058;-49
2023/05/31 06:01:03;;;;;;;4.93;1.80;;;;;;;13.68;82.16;99140.03;5052546;28;20052;-43
2023/05/31 06:03:34;;;;;;;4.93;1.85;;;;;;;13.68;82.40;99133.06;5067333;28;20677;-41
2023/05/31 06:06:02;;;;;;;2.65;1.98;;;;;;;13.70;82.51;99120.75;5054519;28;20152;-45
2023/05/31 06:08:28;;;;;;;4.63;2.50;;;;;;;13.67;82.79;99120.06;5067078;28;20598;-44
2023/05/31 06:10:54;;;;;;;3.08;1.92;;;;;;;13.69;83.03;99131.28;5081016;28;20048;-42
2023/05/31 06:13:21;;;;;;;2.28;1.80;;;;;;;13.69;83.38;99129.53;5053753;28;20104;-40
2023/05/31 06:15:47;;;;;;;4.32;1.92;;;;;;;13.68;83.86;99130.44;5065241;28;20035;-45
2023/05/31 06:18:14;;;;;;;4.43;2.28;;;;;;;13.68;84.31;99116.53;5088739;28;20035;-42
2023/05/31 06:20:41;;;;;;;4.68;2.03;;;;;;;13.60;84.78;99095.25;5070336;28;20054;-43
2023/05/31 06:23:07;;;;;;;4.93;1.90;;;;;;;13.66;85.07;99098.31;5069643;28;20090;-44
2023/05/31 06:25:35;;;;;;;3.45;1.63;;;;;;;13.63;85.45;99108.97;5054109;28;20048;-42
2023/05/31 06:28:01;;;;;;;2.15;1.63;;;;;;;13.64;85.93;99104.59;5069020;28;20047;-42
2023/05/31 06:30:27;;;;;;;1.90;1.70;;;;;;;13.64;86.26;99102.81;5053913;28;20104;-44
2023/05/31 06:32:53;;;;;;;6.80;2.22;;;;;;;13.58;86.62;99090.09;5070268;28;20036;-42
2023/05/31 06:35:24;;;;;;;8.70;4.60;;;;;;;13.54;87.05;99085.97;5070426;28;20050;-43
2023/05/31 06:37:51;;;;;;;6.07;2.72;;;;;;;13.53;87.31;99082.53;5069902;28;20465;-43
2023/05/31 06:40:18;;;;;;;4.60;2.50;;;;;;;13.51;87.85;99084.38;5070651;28;20185;-41
2023/05/31 06:42:44;;;;;;;5.50;2.70;;;;;;;13.54;88.24;99083.38;5069904;28;20044;-44
2023/05/31 06:45:32;;;;;;;7.03;2.53;;;;;;;13.57;88.73;99089.25;5069772;28;20097;-42
2023/05/31 06:48:27;;;;;;;4.80;2.10;;;;;;;13.60;89.07;99084.78;5013491;28;20611;-42
2023/05/31 06:51:11;;;;;;;5.60;2.50;;;;;;;13.58;89.43;99083.09;5075481;28;20493;-43
2023/05/31 06:53:58;;;;;;;6.55;2.35;;;;;;;13.58;89.86;99083.09;5035038;28;20052;-44
2023/05/31 06:56:27;;;;;;;5.65;2.00;;;;;;;13.57;90.33;99072.72;5050305;28;20113;-44
2023/05/31 06:58:53;;;;;;;4.13;2.30;;;;;;;13.56;90.78;99077.09;5044869;28;20044;-43
2023/05/31 07:01:19;;;;;;;5.30;2.20;;;;;;;13.56;91.51;99087.56;5050448;28;20093;-42
2023/05/31 07:03:45;;;;;;;4.47;2.40;;;;;;;13.55;91.78;99082.44;5050108;28;20044;-43
2023/05/31 07:06:11;;;;;;;5.90;2.35;;;;;;;13.51;92.08;99081.75;5050825;28;20794;-44
2023/05/31 07:08:38;;;;;;;4.18;2.33;;;;;;;13.56;92.26;99090.16;5069128;28;20789;-45
2023/05/31 07:11:23;;;;;;;4.82;2.28;;;;;;;13.60;92.48;99087.41;5068803;28;20040;-42
2023/05/31 07:13:49;;;;;;;5.10;1.85;;;;;;;13.52;92.37;99061.72;5070141;28;20086;-43
2023/05/31 07:16:15;;;;;;;3.20;2.00;;;;;;;13.68;92.51;99083.41;5053608;28;20036;-42
2023/05/31 07:18:42;;;;;;;3.90;1.85;;;;;;;13.71;92.14;99085.03;5069962;28;20138;-45
2023/05/31 07:21:08;;;;;;;2.63;1.60;;;;;;;13.73;92.08;99078.78;5066155;28;20156;-44
2023/05/31 07:23:34;;;;;;;3.65;1.50;;;;;;;13.74;91.58;99072.63;5055494;28;20546;-43
2023/05/31 07:26:03;;;;;;;5.50;1.63;;;;;;;13.81;91.51;99071.38;5069986;28;20044;-44
2023/05/31 07:28:29;;;;;;;4.45;2.20;;;;;;;13.74;90.96;99075.25;5087842;28;20036;-44
2023/05/31 07:30:54;;;;;;;3.88;1.92;;;;;;;13.82;90.67;99085.25;5087735;28;20047;-46
2023/05/31 07:33:20;;;;;;;5.13;1.58;;;;;;;13.84;90.57;99081.63;5069563;28;20046;-44
2023/05/31 07:35:46;;;;;;;3.15;1.60;;;;;;;13.88;90.34;99077.06;5088061;28;20040;-43
2023/05/31 07:38:12;;;;;;;3.80;1.60;;;;;;;13.91;89.86;99075.13;5069166;28;20047;-44
2023/05/31 07:40:38;;;;;;;4.35;1.70;;;;;;;13.96;89.65;99059.19;5036547;28;20471;-43
2023/05/31 07:43:04;;;;;;;2.75;1.90;;;;;;;13.88;89.29;99036.09;5069718;28;20062;-45
2023/05/31 07:45:30;;;;;;;3.85;1.88;;;;;;;14.05;88.87;99060.41;5088037;28;20522;-43
2023/05/31 07:47:56;;;;;;;2.65;1.50;;;;;;;14.03;88.54;99062.28;5049011;28;20039;-43
2023/05/31 07:50:22;;;;;;;4.15;1.80;;;;;;;14.03;88.36;99070.13;5070826;28;20051;-42
2023/05/31 07:52:49;;;;;;;4.65;1.80;;;;;;;13.91;88.69;99048.16;5069746;28;20040;-43
2023/05/31 07:55:18;;;;;;;3.83;2.30;;;;;;;14.03;88.45;99059.66;5090477;28;20130;-41
2023/05/31 07:57:44;;;;;;;;;;;;;;;14.03;88.31;99064.91;5074057;28;20036;-42
2023/05/31 08:00:13;;;;;;;2.22;1.58;;;;;;;14.02;88.52;99065.81;5059638;28;20375;-43
2023/05/31 08:02:41;;;;;;;2.33;1.60;;;;;;;14.01;88.30;99070.22;5036816;28;20097;-42
2023/05/31 08:05:07;;;;;;;4.22;1.60;;;;;;;13.95;88.27;99067.94;5053324;28;20159;-43
2023/05/31 08:07:33;;;;;;;2.90;1.40;;;;;;;13.99;88.13;99074.66;5065238;28;20150;-41
2023/05/31 08:09:59;;;;;;;3.40;1.58;;;;;;;14.17;88.13;99071.00;5072517;28;20460;-42
2023/05/31 08:12:25;;;;;;;5.30;1.63;;;;;;;14.40;87.50;99065.25;5073050;28;20089;-42
2023/05/31 08:14:52;;;;;;;4.18;2.72;;;;;;;14.67;86.28;99054.91;5090636;28;20054;-42
2023/05/31 08:17:18;;;;;;;3.67;1.30;;;;;;;14.94;84.88;99067.25;5091213;28;20032;-44
2023/05/31 08:19:44;;;;;;;2.80;1.50;;;;;;;15.28;82.79;99070.25;5069223;28;20036;-43
2023/05/31 08:22:10;;;;;;;2.03;1.30;;;;;;;15.58;81.11;99056.19;5052668;28;20067;-43
2023/05/31 08:24:36;;;;;;;3.00;1.20;;;;;;;15.63;79.25;99041.00;5052638;28;20051;-43
2023/05/31 08:27:02;;;;;;;2.45;1.40;;;;;;;15.94;77.63;99071.28;5070534;28;20059;-44
2023/05/31 08:29:28;;;;;;;1.88;1.38;;;;;;;15.82;76.63;99058.97;5077077;28;20048;-42
2023/05/31 08:31:55;;;;;;;2.85;1.25;;;;;;;15.75;75.71;99069.06;5056030;28;20047;-44
2023/05/31 08:34:20;;;;;;;4.22;2.80;;;;;;;15.46;74.79;99059.56;5090997;28;20100;-42
2023/05/31 08:36:47;;;;;;;2.63;1.52;;;;;;;15.47;74.06;99079.59;5090723;28;20503;-45
2023/05/31 08:39:13;;;;;;;6.95;2.08;;;;;;;15.34;73.52;99074.28;5089937;28;20040;-43
2023/05/31 08:42:01;;;;;;;2.72;1.60;;;;;;;15.29;72.80;99081.59;5045751;28;20040;-44
2023/05/31 08:44:30;;;;;;;1.63;1.38;;;;;;;15.32;72.31;99084.03;5090340;28;20062;-42
2023/05/31 08:47:08;;;;;;;3.67;1.58;;;;;;;15.33;71.94;99083.09;5090279;28;20071;-45
2023/05/31 08:49:36;;;;;;;1.80;1.15;;;;;;;14.99;72.02;99049.47;5085833;28;20036;-43
2023/05/31 08:52:02;;;;;;;3.30;1.35;;;;;;;15.16;71.80;99092.00;5034667;28;20044;-45
2023/05/31 08:54:28;;;;;;;3.20;1.73;;;;;;;15.07;72.06;99094.34;5082187;28;20131;-46
2023/05/31 08:56:55;;;;;;;1.92;1.35;;;;;;;14.90;72.18;99103.25;5083533;28;20132;-46
2023/05/31 08:59:21;;;;;;;4.00;1.60;;;;;;;14.72;72.53;99106.97;5072419;28;20034;-44
2023/05/31 09:01:47;;;;;;;3.80;2.00;;;;;;;14.56;73.18;99100.97;5071627;28;20395;-48
2023/05/31 09:04:15;;;;;;;5.10;1.80;;;;;;;14.47;73.70;99101.53;5068879;28;20147;-46
2023/05/31 09:06:40;;;;;;;2.83;1.88;;;;;;;14.36;73.58;99100.38;5088342;28;20529;-44
2023/05/31 09:09:09;;;;;;;3.15;1.60;;;;;;;14.30;73.46;99099.88;5087303;28;20143;-46
2023/05/31 09:11:40;;;;;;;2.67;2.13;;;;;;;14.26;73.87;99104.44;5071191;28;20039;-47
2023/05/31 09:14:08;;;;;;;2.25;1.60;;;;;;;14.17;73.94;99112.81;5071684;28;20036;-44
2023/05/31 09:16:35;;;;;;;2.95;1.90;;;;;;;14.06;74.64;99110.00;5068779;28;20072;-46
2023/05/31 09:19:02;;;;;;;3.63;1.70;;;;;;;13.88;74.72;99092.72;5089941;28;20068;-46
2023/05/31 09:21:28;;;;;;;3.08;1.60;;;;;;;14.03;74.52;99114.56;5053303;28;20102;-47
2023/05/31 09:23:56;;;;;;;2.70;1.42;;;;;;;14.03;74.15;99117.97;5069289;28;20474;-45
2023/05/31 09:26:23;;;;;;;4.22;1.73;;;;;;;14.08;73.77;99108.09;5087300;28;20048;-46
2023/05/31 09:28:51;;;;;;;4.50;1.70;;;;;;;14.29;73.08;99104.25;5094104;28;20040;-44
2023/05/31 09:31:19;;;;;;;3.10;1.70;;;;;;;14.52;72.16;99104.69;5069919;28;20044;-44
2023/05/31 09:33:47;;;;;;;3.78;1.83;;;;;;;14.92;71.71;99109.19;5098683;28;20078;-44
2023/05/31 09:36:14;;;;;;;3.47;1.92;;;;;;;14.90;70.82;99063.13;5082834;28;20032;-44
2023/05/31 09:38:40;;;;;;;3.92;1.92;;;;;;;15.16;70.17;99099.00;5089028;28;20036;-45
2023/05/31 09:41:17;;;;;;;3.63;2.40;;;;;;;15.18;69.31;99094.50;5052651;28;20475;-46
2023/05/31 09:43:45;;;;;;;4.05;1.98;;;;;;;15.21;68.98;99100.41;5053391;28;20054;-46
2023/05/31 09:46:18;;;;;;;2.80;2.00;;;;;;;15.26;68.80;99090.47;5070123;28;20140;-47
2023/05/31 09:48:45;;;;;;;3.03;1.90;;;;;;;15.09;68.76;99084.59;5086634;28;20032;-52
2023/05/31 09:51:13;;;;;;;4.32;2.42;;;;;;;14.99;69.14;99086.97;5077837;28;20549;-48
2023/05/31 09:53:41;;;;;;;2.95;2.00;;;;;;;15.00;68.86;99098.28;5087265;28;20044;-45
2023/05/31 09:56:23;;;;;;;2.38;1.75;;;;;;;15.06;68.40;99093.50;5053315;28;20117;-42
2023/05/31 09:58:50;;;;;;;3.00;1.90;;;;;;;15.03;68.26;99095.47;5070799;28;20032;-47
2023/05/31 10:01:17;;;;;;;2.33;1.70;;;;;;;14.89;67.98;99092.84;5069345;28;20051;-44
2023/05/31 10:03:44;;;;;;;3.42;2.05;;;;;;;14.91;67.74;99094.47;5085630;28;20036;-43
2023/05/31 10:06:11;;;;;;;3.67;1.90;;;;;;;14.97;67.43;99093.25;5089033;28;20173;-46
2023/05/31 10:08:37;;;;;;;6.90;1.80;;;;;;;14.86;67.14;99106.16;5070342;28;20040;-46
2023/05/31 10:11:04;;;;;;;2.35;1.48;;;;;;;14.81;66.50;99099.38;5054811;28;20598;-43
2023/05/31 10:13:31;;;;;;;4.20;1.98;;;;;;;14.89;66.60;99100.72;5051762;28;20036;-44
2023/05/31 10:16:02;;;;;;;3.40;2.00;;;;;;;14.93;66.87;99094.34;5064994;28;20048;-46
2023/05/31 10:18:31;;;;;;;5.72;2.35;;;;;;;14.89;66.23;99100.72;5067963;28;20297;-45
2023/05/31 10:21:07;;;;;;;2.30;1.58;;;;;;;14.79;66.41;99109.13;5069668;28;20131;-48
2023/05/31 10:23:41;;;;;;;2.45;1.83;;;;;;;14.63;65.94;99105.75;5067578;28;20173;-48
2023/05/31 10:26:17;;;;;;;3.50;1.90;;;;;;;14.59;66.00;99112.09;5065762;28;20048;-47
2023/05/31 10:29:08;;;;;;;5.05;2.10;;;;;;;14.61;66.48;99118.06;5053009;28;20079;-43
2023/05/31 10:31:49;;;;;;;6.30;2.30;;;;;;;14.55;66.91;99118.44;5067769;28;20061;-44
2023/05/31 10:34:19;;;;;;;2.97;2.00;;;;;;;14.29;66.76;99124.31;5073751;28;20042;-44
2023/05/31 10:36:46;;;;;;;5.03;3.17;;;;;;;14.16;67.34;99124.22;5076135;28;20051;-44
2023/05/31 10:39:41;;;;;;;4.57;2.03;;;;;;;14.09;67.93;99125.47;5063080;28;20119;-47
2023/05/31 10:42:07;;;;;;;2.65;1.98;;;;;;;13.94;68.31;99129.81;5071085;28;20040;-50
2023/05/31 10:45:08;;;;;;;3.38;2.25;;;;;;;13.87;68.58;99131.09;5058448;28;20197;-46
2023/05/31 10:47:42;;;;;;;11.30;1.98;;;;;;;13.65;68.53;99109.72;5056278;28;20091;-46
2023/05/31 10:50:08;;;;;;;2.90;1.90;;;;;;;13.58;69.04;99131.88;5053597;28;20142;-45
2023/05/31 10:52:34;;;;;;;3.03;2.30;;;;;;;13.38;68.65;99143.44;5049033;28;20055;-42
2023/05/31 10:55:21;;;;;;;5.70;2.20;;;;;;;13.48;69.01;99139.38;5084945;28;20048;-44
2023/05/31 10:57:55;;;;;;;2.38;1.85;;;;;;;13.43;68.92;99140.56;5016787;28;20047;-46
2023/05/31 11:00:22;;;;;;;2.88;1.95;;;;;;;13.35;69.10;99133.13;5085757;28;20034;-46
2023/05/31 11:02:51;;;;;;;6.28;1.90;;;;;;;13.47;69.41;99149.91;5067849;28;20067;-45
2023/05/31 11:05:21;;;;;;;3.67;1.80;;;;;;;13.56;69.17;99139.78;5069700;28;20503;-44
2023/05/31 11:07:48;;;;;;;6.70;2.55;;;;;;;13.60;68.67;99144.88;5087771;28;20059;-42
2023/05/31 11:10:25;;;;;;;3.28;1.80;;;;;;;13.38;67.24;99142.59;5069183;28;20036;-45
2023/05/31 11:12:51;;;;;;;8.52;5.50;;;;;;;13.43;67.33;99137.94;5065728;28;20043;-44
2023/05/31 11:15:17;;;;;;;3.25;2.10;;;;;;;13.75;67.11;99146.63;5036298;28;20040;-43
2023/05/31 11:17:54;;;;;;;2.80;2.08;;;;;;;13.50;66.19;99126.25;5069665;28;20534;-43
2023/05/31 11:20:21;;;;;;;4.72;1.90;;;;;;;13.66;66.30;99145.34;5063575;28;20028;-44
2023/05/31 11:22:47;;;;;;;5.28;1.95;;;;;;;13.58;66.02;99140.56;5065870;28;20151;-45
2023/05/31 11:25:20;;;;;;;5.47;2.17;;;;;;;13.46;66.53;99143.00;5047474;28;20044;-49
2023/05/31 11:27:49;;;;;;;3.53;1.98;;;;;;;13.47;66.51;99145.53;5065090;28;20052;-43
2023/05/31 11:30:19;;;;;;;5.18;2.22;;;;;;;13.42;66.88;99126.66;5054574;28;20047;-45
2023/05/31 11:32:55;;;;;;;6.43;2.67;;;;;;;13.70;66.70;99156.50;5073179;28;20083;-43
2023/05/31 11:35:22;;;;;;;5.22;2.00;;;;;;;13.59;66.65;99125.75;5053960;28;20075;-43
2023/05/31 11:37:49;;;;;;;6.07;1.85;;;;;;;13.97;65.92;99153.16;5063843;28;20079;-46
2023/05/31 11:40:16;;;;;;;3.92;1.90;;;;;;;13.83;65.79;99126.97;5091791;28;20043;-46
2023/05/31 11:42:43;;;;;;;3.75;2.10;;;;;;;14.01;65.25;99159.06;5079388;28;20528;-46